sensor_id;sensor_type;location;lat;lon;timestamp;pressure;altitude;pressure_sealevel;temperature;humidity
26697;BME280;14312;52.614;13.496;2023-04-25T00:01:34;99905.31;;;12.29;55.08
26697;BME280;14312;52.614;13.496;2023-04-25T00:04:21;99905.31;;;12.29;55.16
26697;BME280;14312;52.614;13.496;2023-04-25T00:07:08;99900.75;;;12.29;54.79
26697;BME280;14312;52.614;13.496;2023-04-25T00:09:54;99894.63;;;12.29;55.09
26697;BME280;14312;52.614;13.496;2023-04-25T00:12:41;99898.38;;;12.28;54.83
26697;BME280;14312;52.614;13.496;2023-04-25T00:15:27;99892.50;;;12.26;54.97
26697;BME280;14312;52.614;13.496;2023-04-25T00:18:14;99891.44;;;12.27;54.96
26697;BME280;14312;52.614;13.496;2023-04-25T00:21:00;99888.75;;;12.27;54.80
26697;BME280;14312;52.614;13.496;2023-04-25T00:23:47;99885.00;;;12.23;54.81
26697;BME280;14312;52.614;13.496;2023-04-25T00:26:34;99887.69;;;12.23;54.98
26697;BME280;14312;52.614;13.496;2023-04-25T00:29:21;99892.22;;;12.22;55.04
26697;BME280;14312;52.614;13.496;2023-04-25T00:32:07;99885.56;;;12.20;54.86
26697;BME280;14312;52.614;13.496;2023-04-25T00:34:53;99886.09;;;12.16;55.17
26697;BME280;14312;52.614;13.496;2023-04-25T00:37:41;99887.94;;;12.16;54.97
26697;BME280;14312;52.614;13.496;2023-04-25T00:40:28;99884.47;;;12.15;55.03
26697;BME280;14312;52.614;13.496;2023-04-25T00:43:14;99880.50;;;12.13;54.91
26697;BME280;14312;52.614;13.496;2023-04-25T00:46:00;99889.81;;;12.15;54.86
26697;BME280;14312;52.614;13.496;2023-04-25T00:48:46;99884.47;;;12.15;54.85
26697;BME280;14312;52.614;13.496;2023-04-25T00:51:32;99885.56;;;12.14;54.95
26697;BME280;14312;52.614;13.496;2023-04-25T00:54:18;99898.94;;;12.14;54.89
26697;BME280;14312;52.614;13.496;2023-04-25T00:57:04;99893.59;;;12.14;54.72
26697;BME280;14312;52.614;13.496;2023-04-25T00:59:51;99877.56;;;12.14;54.93
26697;BME280;14312;52.614;13.496;2023-04-25T01:02:40;99884.47;;;12.15;55.02
26697;BME280;14312;52.614;13.496;2023-04-25T01:05:27;99884.47;;;12.15;54.66
26697;BME280;14312;52.614;13.496;2023-04-25T01:08:13;99886.09;;;12.16;54.65
26697;BME280;14312;52.614;13.496;2023-04-25T01:11:00;99877.25;;;12.16;54.56
26697;BME280;14312;52.614;13.496;2023-04-25T01:13:46;99861.53;;;12.14;54.75
26697;BME280;14312;52.614;13.496;2023-04-25T01:16:32;99877.56;;;12.14;54.49
26697;BME280;14312;52.614;13.496;2023-04-25T01:19:19;99875.97;;;12.13;54.44
26697;BME280;14312;52.614;13.496;2023-04-25T01:22:05;99881.81;;;12.10;54.57
26697;BME280;14312;52.614;13.496;2023-04-25T01:24:51;99865.78;;;12.10;54.53
26697;BME280;14312;52.614;13.496;2023-04-25T01:27:38;99877.03;;;12.07;54.76
26697;BME280;14312;52.614;13.496;2023-04-25T01:30:26;99873.56;;;12.07;54.90
26697;BME280;14312;52.614;13.496;2023-04-25T01:33:13;99868.47;;;12.05;54.90
26697;BME280;14312;52.614;13.496;2023-04-25T01:36:00;99866.88;;;12.04;54.51
26697;BME280;14312;52.614;13.496;2023-04-25T01:38:46;99870.59;;;12.03;54.69
26697;BME280;14312;52.614;13.496;2023-04-25T01:41:33;99872.22;;;12.04;54.60
26697;BME280;14312;52.614;13.496;2023-04-25T01:44:22;99881.56;;;12.02;55.03
26697;BME280;14312;52.614;13.496;2023-04-25T01:47:09;99875.94;;;12.03;54.88
26697;BME280;14312;52.614;13.496;2023-04-25T01:49:55;99866.34;;;12.02;54.65
26697;BME280;14312;52.614;13.496;2023-04-25T01:52:41;99870.59;;;12.03;54.71
26697;BME280;14312;52.614;13.496;2023-04-25T01:55:28;99880.75;;;12.01;54.80
26697;BME280;14312;52.614;13.496;2023-04-25T01:58:14;99874.34;;;12.02;54.65
26697;BME280;14312;52.614;13.496;2023-04-25T02:01:00;99874.34;;;12.02;54.65
26697;BME280;14312;52.614;13.496;2023-04-25T02:03:46;99877.00;;;12.02;54.71
26697;BME280;14312;52.614;13.496;2023-04-25T02:06:33;99877.28;;;12.01;54.65
26697;BME280;14312;52.614;13.496;2023-04-25T02:09:19;99881.84;;;12.00;54.71
26697;BME280;14312;52.614;13.496;2023-04-25T02:12:08;99878.06;;;12.01;54.59
26697;BME280;14312;52.614;13.496;2023-04-25T02:14:54;99882.63;;;12.01;54.47
26697;BME280;14312;52.614;13.496;2023-04-25T02:17:40;99878.06;;;12.01;54.57
26697;BME280;14312;52.614;13.496;2023-04-25T02:20:28;99881.84;;;12.00;54.80
26697;BME280;14312;52.614;13.496;2023-04-25T02:23:14;99874.91;;;11.99;54.48
26697;BME280;14312;52.614;13.496;2023-04-25T02:26:01;99878.06;;;12.01;54.40
26697;BME280;14312;52.614;13.496;2023-04-25T02:28:48;99886.88;;;12.02;54.68
26697;BME280;14312;52.614;13.496;2023-04-25T02:31:34;99880.75;;;12.01;54.60
26697;BME280;14312;52.614;13.496;2023-04-25T02:34:20;99881.28;;;12.03;54.87
26697;BME280;14312;52.614;13.496;2023-04-25T02:37:06;99878.06;;;12.01;54.77
26697;BME280;14312;52.614;13.496;2023-04-25T02:39:52;99880.75;;;12.01;54.67
26697;BME280;14312;52.614;13.496;2023-04-25T02:42:39;99877.28;;;12.01;54.70
26697;BME280;14312;52.614;13.496;2023-04-25T02:45:26;99886.38;;;12.00;54.65
26697;BME280;14312;52.614;13.496;2023-04-25T02:48:12;99880.22;;;11.99;54.92
26697;BME280;14312;52.614;13.496;2023-04-25T02:50:59;99883.16;;;11.98;54.92
26697;BME280;14312;52.614;13.496;2023-04-25T02:53:44;99882.38;;;11.97;54.98
26697;BME280;14312;52.614;13.496;2023-04-25T02:56:30;99879.16;;;11.95;55.08
26697;BME280;14312;52.614;13.496;2023-04-25T02:59:17;99877.53;;;11.94;55.23
26697;BME280;14312;52.614;13.496;2023-04-25T03:02:03;99877.53;;;11.94;54.96
26697;BME280;14312;52.614;13.496;2023-04-25T03:04:49;99876.75;;;11.94;55.29
26697;BME280;14312;52.614;13.496;2023-04-25T03:07:35;99878.09;;;11.91;55.20
26697;BME280;14312;52.614;13.496;2023-04-25T03:10:21;99879.69;;;11.92;55.28
26697;BME280;14312;52.614;13.496;2023-04-25T03:13:07;99870.34;;;11.90;55.60
26697;BME280;14312;52.614;13.496;2023-04-25T03:15:53;99883.44;;;11.91;55.27
26697;BME280;14312;52.614;13.496;2023-04-25T03:18:39;99876.50;;;11.90;55.26
26697;BME280;14312;52.614;13.496;2023-04-25T03:21:25;99872.75;;;11.91;55.30
26697;BME280;14312;52.614;13.496;2023-04-25T03:24:12;99888.78;;;11.91;55.54
26697;BME280;14312;52.614;13.496;2023-04-25T03:26:58;99888.78;;;11.91;55.54
26697;BME280;14312;52.614;13.496;2023-04-25T03:29:44;99880.22;;;11.89;55.44
26697;BME280;14312;52.614;13.496;2023-04-25T03:32:31;99879.16;;;11.90;55.45
26697;BME280;14312;52.614;13.496;2023-04-25T03:35:17;99887.69;;;11.87;55.38
26697;BME280;14312;52.614;13.496;2023-04-25T03:38:03;99889.84;;;11.90;55.38
26697;BME280;14312;52.614;13.496;2023-04-25T03:40:51;99877.56;;;11.89;55.14
26697;BME280;14312;52.614;13.496;2023-04-25T03:43:37;99885.56;;;11.89;55.47
26697;BME280;14312;52.614;13.496;2023-04-25T03:46:23;99890.91;;;11.89;55.32
26697;BME280;14312;52.614;13.496;2023-04-25T03:49:09;99890.91;;;11.89;55.45
26697;BME280;14312;52.614;13.496;2023-04-25T03:51:56;99890.91;;;11.89;55.45
26697;BME280;14312;52.614;13.496;2023-04-25T03:54:42;99898.91;;;11.89;55.53
26697;BME280;14312;52.614;13.496;2023-04-25T03:57:28;99902.63;;;11.88;55.57
26697;BME280;14312;52.614;13.496;2023-04-25T04:00:14;99894.91;;;11.87;55.42
26697;BME280;14312;52.614;13.496;2023-04-25T04:03:01;99907.19;;;11.88;55.68
26697;BME280;14312;52.614;13.496;2023-04-25T04:05:47;99902.91;;;11.87;55.56
26697;BME280;14312;52.614;13.496;2023-04-25T04:08:33;99902.13;;;11.86;55.67
26697;BME280;14312;52.614;13.496;2023-04-25T04:11:19;99892.50;;;11.80;55.53
26697;BME280;14312;52.614;13.496;2023-04-25T04:14:06;99908.00;;;11.83;55.77
26697;BME280;14312;52.614;13.496;2023-04-25T04:16:53;99910.13;;;11.81;55.65
26697;BME280;14312;52.614;13.496;2023-04-25T04:19:39;99913.31;;;11.83;55.85
26697;BME280;14312;52.614;13.496;2023-04-25T04:22:25;99908.50;;;11.80;55.74
26697;BME280;14312;52.614;13.496;2023-04-25T04:25:11;99917.06;;;11.82;55.73
26697;BME280;14312;52.614;13.496;2023-04-25T04:27:57;99913.84;;;11.80;55.77
26697;BME280;14312;52.614;13.496;2023-04-25T04:30:44;99913.03;;;11.80;55.73
26697;BME280;14312;52.614;13.496;2023-04-25T04:33:32;99916.81;;;11.79;55.75
26697;BME280;14312;52.614;13.496;2023-04-25T04:36:18;99919.72;;;11.77;55.37
26697;BME280;14312;52.614;13.496;2023-04-25T04:39:07;99924.53;;;11.80;55.79
26697;BME280;14312;52.614;13.496;2023-04-25T04:41:54;99920.78;;;11.81;55.77
26697;BME280;14312;52.614;13.496;2023-04-25T04:44:40;99919.19;;;11.80;55.63
26697;BME280;14312;52.614;13.496;2023-04-25T04:47:26;99927.72;;;11.82;55.64
26697;BME280;14312;52.614;13.496;2023-04-25T04:50:16;99924.25;;;11.82;55.69
26697;BME280;14312;52.614;13.496;2023-04-25T04:53:04;99936.00;;;11.81;55.68
26697;BME280;14312;52.614;13.496;2023-04-25T04:55:49;99931.47;;;11.81;55.74
26697;BME280;14312;52.614;13.496;2023-04-25T04:58:36;99933.06;;;11.82;55.67
26697;BME280;14312;52.614;13.496;2023-04-25T05:01:22;99933.06;;;11.82;55.70
26697;BME280;14312;52.614;13.496;2023-04-25T05:04:08;99936.28;;;11.84;55.79
26697;BME280;14312;52.614;13.496;2023-04-25T05:06:54;99932.56;;;11.85;55.81
26697;BME280;14312;52.614;13.496;2023-04-25T05:09:40;99934.94;;;11.87;55.80
26697;BME280;14312;52.614;13.496;2023-04-25T05:12:26;99935.75;;;11.87;55.87
26697;BME280;14312;52.614;13.496;2023-04-25T05:15:12;99933.63;;;11.89;55.71
26697;BME280;14312;52.614;13.496;2023-04-25T05:17:58;99938.94;;;11.89;55.82
26697;BME280;14312;52.614;13.496;2023-04-25T05:20:44;99935.22;;;11.90;55.86
26697;BME280;14312;52.614;13.496;2023-04-25T05:23:31;99943.22;;;11.90;55.70
26697;BME280;14312;52.614;13.496;2023-04-25T05:26:16;99933.63;;;11.89;55.96
26697;BME280;14312;52.614;13.496;2023-04-25T05:29:02;99943.22;;;11.90;55.92
26697;BME280;14312;52.614;13.496;2023-04-25T05:31:48;99939.50;;;11.91;56.05
26697;BME280;14312;52.614;13.496;2023-04-25T05:34:34;99944.84;;;11.91;55.99
26697;BME280;14312;52.614;13.496;2023-04-25T05:37:20;99938.44;;;11.92;55.92
26697;BME280;14312;52.614;13.496;2023-04-25T05:40:08;99944.28;;;11.94;55.95
26697;BME280;14312;52.614;13.496;2023-04-25T05:42:54;99945.91;;;11.95;55.92
26697;BME280;14312;52.614;13.496;2023-04-25T05:45:40;99948.56;;;11.95;56.14
26697;BME280;14312;52.614;13.496;2023-04-25T05:48:26;99948.06;;;11.93;56.10
26697;BME280;14312;52.614;13.496;2023-04-25T05:51:12;99952.03;;;11.96;56.14
26697;BME280;14312;52.614;13.496;2023-04-25T05:53:58;99959.25;;;11.95;56.00
26697;BME280;14312;52.614;13.496;2023-04-25T05:56:44;99963.78;;;11.95;56.29
26697;BME280;14312;52.614;13.496;2023-04-25T05:59:30;99955.50;;;11.96;55.78
26697;BME280;14312;52.614;13.496;2023-04-25T06:02:17;99962.47;;;11.97;56.25
26697;BME280;14312;52.614;13.496;2023-04-25T06:05:03;99955.00;;;11.99;56.60
26697;BME280;14312;52.614;13.496;2023-04-25T06:07:49;99963.53;;;12.01;56.36
26697;BME280;14312;52.614;13.496;2023-04-25T06:10:36;99961.41;;;12.03;56.44
26697;BME280;14312;52.614;13.496;2023-04-25T06:13:22;99964.06;;;12.03;56.31
26697;BME280;14312;52.614;13.496;2023-04-25T06:16:08;99971.56;;;12.06;56.41
26697;BME280;14312;52.614;13.496;2023-04-25T06:18:54;99975.53;;;12.09;56.47
26697;BME280;14312;52.614;13.496;2023-04-25T06:21:42;99970.50;;;12.12;56.42
26697;BME280;14312;52.614;13.496;2023-04-25T06:24:29;99976.09;;;12.16;56.52
26697;BME280;14312;52.614;13.496;2023-04-25T06:27:15;99976.38;;;12.20;56.41
26697;BME280;14312;52.614;13.496;2023-04-25T06:30:01;99975.81;;;12.23;56.39
26697;BME280;14312;52.614;13.496;2023-04-25T06:32:47;99977.44;;;12.24;56.39
26697;BME280;14312;52.614;13.496;2023-04-25T06:35:33;99980.66;;;12.26;56.38
26697;BME280;14312;52.614;13.496;2023-04-25T06:38:19;99977.44;;;12.24;56.35
26697;BME280;14312;52.614;13.496;2023-04-25T06:41:05;99980.38;;;12.22;56.27
26697;BME280;14312;52.614;13.496;2023-04-25T06:43:51;99979.84;;;12.20;56.26
26697;BME280;14312;52.614;13.496;2023-04-25T06:46:37;99980.09;;;12.19;56.46
26697;BME280;14312;52.614;13.496;2023-04-25T06:49:23;99980.63;;;12.15;56.53
26697;BME280;14312;52.614;13.496;2023-04-25T06:52:09;99976.38;;;12.14;56.45
26697;BME280;14312;52.614;13.496;2023-04-25T06:54:56;99980.13;;;12.13;56.48
26697;BME280;14312;52.614;13.496;2023-04-25T06:57:42;99992.91;;;12.11;56.65
26697;BME280;14312;52.614;13.496;2023-04-25T07:00:28;99975.84;;;12.12;56.61
26697;BME280;14312;52.614;13.496;2023-04-25T07:03:14;99988.13;;;12.13;56.79
26697;BME280;14312;52.614;13.496;2023-04-25T07:06:00;99981.72;;;12.14;56.76
26697;BME280;14312;52.614;13.496;2023-04-25T07:08:46;99983.59;;;12.14;56.68
26697;BME280;14312;52.614;13.496;2023-04-25T07:11:32;99985.97;;;12.15;56.83
26697;BME280;14312;52.614;13.496;2023-04-25T07:14:18;99993.97;;;12.15;56.77
26697;BME280;14312;52.614;13.496;2023-04-25T07:17:04;99995.84;;;12.15;56.90
26697;BME280;14312;52.614;13.496;2023-04-25T07:19:52;100002.53;;;12.12;56.88
26697;BME280;14312;52.614;13.496;2023-04-25T07:22:38;100000.94;;;12.11;56.93
26697;BME280;14312;52.614;13.496;2023-04-25T07:25:24;100008.41;;;12.09;56.91
26697;BME280;14312;52.614;13.496;2023-04-25T07:28:10;100007.88;;;12.07;56.94
26697;BME280;14312;52.614;13.496;2023-04-25T07:30:56;100006.78;;;12.08;57.14
26697;BME280;14312;52.614;13.496;2023-04-25T07:33:44;100018.81;;;12.11;57.41
26697;BME280;14312;52.614;13.496;2023-04-25T07:36:31;100018.00;;;12.15;57.15
26697;BME280;14312;52.614;13.496;2023-04-25T07:39:17;100022.84;;;12.19;57.09
26697;BME280;14312;52.614;13.496;2023-04-25T07:42:03;100021.78;;;12.25;57.32
26697;BME280;14312;52.614;13.496;2023-04-25T07:44:58;100025.25;;;12.30;57.18
26697;BME280;14312;52.614;13.496;2023-04-25T07:47:47;100028.75;;;12.36;56.80
26697;BME280;14312;52.614;13.496;2023-04-25T07:50:33;100026.59;;;12.38;56.78
26697;BME280;14312;52.614;13.496;2023-04-25T07:53:19;100036.75;;;12.41;56.52
26697;BME280;14312;52.614;13.496;2023-04-25T07:56:05;100036.75;;;12.41;56.45
26697;BME280;14312;52.614;13.496;2023-04-25T07:58:51;100022.34;;;12.42;56.58
26697;BME280;14312;52.614;13.496;2023-04-25T08:01:37;100039.44;;;12.46;56.68
26697;BME280;14312;52.614;13.496;2023-04-25T08:04:23;100038.91;;;12.49;56.54
26697;BME280;14312;52.614;13.496;2023-04-25T08:07:09;100039.16;;;12.52;56.38
26697;BME280;14312;52.614;13.496;2023-04-25T08:09:55;100041.03;;;12.57;56.38
26697;BME280;14312;52.614;13.496;2023-04-25T08:12:41;100051.72;;;12.62;56.46
26697;BME280;14312;52.614;13.496;2023-04-25T08:15:27;100056.53;;;12.70;56.49
26697;BME280;14312;52.614;13.496;2023-04-25T08:18:13;100067.78;;;12.77;55.99
26697;BME280;14312;52.614;13.496;2023-04-25T08:20:59;100061.88;;;12.80;55.79
26697;BME280;14312;52.614;13.496;2023-04-25T08:23:45;100068.81;;;12.81;55.52
26697;BME280;14312;52.614;13.496;2023-04-25T08:26:31;100074.72;;;12.83;55.40
26697;BME280;14312;52.614;13.496;2023-04-25T08:29:18;100073.09;;;12.87;55.67
26697;BME280;14312;52.614;13.496;2023-04-25T08:32:04;100082.44;;;12.95;55.37
26697;BME280;14312;52.614;13.496;2023-04-25T08:34:50;100081.09;;;13.03;55.11
26697;BME280;14312;52.614;13.496;2023-04-25T08:37:39;100093.94;;;13.11;54.82
26697;BME280;14312;52.614;13.496;2023-04-25T08:40:27;100096.09;;;13.19;54.66
26697;BME280;14312;52.614;13.496;2023-04-25T08:43:18;100085.94;;;13.26;54.55
26697;BME280;14312;52.614;13.496;2023-04-25T08:46:05;100092.84;;;13.37;54.49
26697;BME280;14312;52.614;13.496;2023-04-25T08:48:53;100103.53;;;13.47;54.16
26697;BME280;14312;52.614;13.496;2023-04-25T08:51:46;100094.69;;;13.52;53.54
26697;BME280;14312;52.614;13.496;2023-04-25T08:54:32;100094.41;;;13.58;54.00
26697;BME280;14312;52.614;13.496;2023-04-25T08:57:21;100101.88;;;13.66;54.17
26697;BME280;14312;52.614;13.496;2023-04-25T09:00:07;100108.00;;;13.77;54.27
26697;BME280;14312;52.614;13.496;2023-04-25T09:02:53;100106.03;;;13.93;54.12
26697;BME280;14312;52.614;13.496;2023-04-25T09:05:41;100110.81;;;14.06;53.56
26697;BME280;14312;52.614;13.496;2023-04-25T09:08:27;100109.16;;;14.15;53.37
26697;BME280;14312;52.614;13.496;2023-04-25T09:11:13;100111.25;;;14.23;52.53
26697;BME280;14312;52.614;13.496;2023-04-25T09:14:16;100130.78;;;14.29;51.01
26697;BME280;14312;52.614;13.496;2023-04-25T09:17:04;100124.34;;;14.35;52.13
26697;BME280;14312;52.614;13.496;2023-04-25T09:19:50;100116.03;;;14.41;52.25
26697;BME280;14312;52.614;13.496;2023-04-25T09:22:37;100114.06;;;14.52;51.93
26697;BME280;14312;52.614;13.496;2023-04-25T09:25:23;100120.41;;;14.66;51.31
26697;BME280;14312;52.614;13.496;2023-04-25T09:28:10;100134.81;;;14.75;50.95
26697;BME280;14312;52.614;13.496;2023-04-25T09:30:57;100132.84;;;14.86;50.27
26697;BME280;14312;52.614;13.496;2023-04-25T09:33:43;100136.59;;;14.90;49.84
26697;BME280;14312;52.614;13.496;2023-04-25T09:36:30;100130.66;;;14.93;49.91
26697;BME280;14312;52.614;13.496;2023-04-25T09:39:16;100140.25;;;14.99;50.23
26697;BME280;14312;52.614;13.496;2023-04-25T09:42:06;100134.28;;;15.07;50.03
26697;BME280;14312;52.614;13.496;2023-04-25T09:44:53;100127.28;;;15.11;49.26
26697;BME280;14312;52.614;13.496;2023-04-25T09:47:40;100142.59;;;15.11;49.09
26697;BME280;14312;52.614;13.496;2023-04-25T09:50:26;100153.06;;;15.07;48.74
26697;BME280;14312;52.614;13.496;2023-04-25T09:53:12;100147.22;;;15.00;48.80
26697;BME280;14312;52.614;13.496;2023-04-25T09:56:00;100145.41;;;14.96;48.60
26697;BME280;14312;52.614;13.496;2023-04-25T09:58:47;100161.81;;;14.89;48.47
26697;BME280;14312;52.614;13.496;2023-04-25T10:01:33;100149.47;;;14.88;48.38
26697;BME280;14312;52.614;13.496;2023-04-25T10:04:23;100156.44;;;14.89;48.35
26697;BME280;14312;52.614;13.496;2023-04-25T10:07:10;100161.81;;;14.89;47.89
26697;BME280;14312;52.614;13.496;2023-04-25T10:10:02;100154.28;;;14.91;47.03
26697;BME280;14312;52.614;13.496;2023-04-25T10:12:48;100149.72;;;14.92;47.13
26697;BME280;14312;52.614;13.496;2023-04-25T10:15:35;100156.44;;;14.89;46.37
26697;BME280;14312;52.614;13.496;2023-04-25T10:18:22;100154.63;;;14.84;46.03
26697;BME280;14312;52.614;13.496;2023-04-25T10:21:10;100161.06;;;14.78;46.08
26697;BME280;14312;52.614;13.496;2023-04-25T10:23:56;100157.63;;;14.73;46.33
26697;BME280;14312;52.614;13.496;2023-04-25T10:26:43;100163.25;;;14.71;46.57
26697;BME280;14312;52.614;13.496;2023-04-25T10:29:29;100170.00;;;14.69;46.24
26697;BME280;14312;52.614;13.496;2023-04-25T10:32:15;100155.53;;;14.65;46.05
26697;BME280;14312;52.614;13.496;2023-04-25T10:35:17;100159.88;;;14.61;44.64
26697;BME280;14312;52.614;13.496;2023-04-25T10:38:10;100183.47;;;14.59;45.21
26697;BME280;14312;52.614;13.496;2023-04-25T10:41:06;100180.25;;;14.57;43.93
26697;BME280;14312;52.614;13.496;2023-04-25T10:43:59;100168.97;;;14.60;44.43
26697;BME280;14312;52.614;13.496;2023-04-25T10:46:47;100175.69;;;14.57;43.83
26697;BME280;14312;52.614;13.496;2023-04-25T10:49:36;100177.88;;;14.55;44.32
26697;BME280;14312;52.614;13.496;2023-04-25T10:52:27;100179.22;;;14.53;43.69
26697;BME280;14312;52.614;13.496;2023-04-25T10:55:14;100169.28;;;14.53;44.32
26697;BME280;14312;52.614;13.496;2023-04-25T10:58:00;100176.78;;;14.56;43.72
26697;BME280;14312;52.614;13.496;2023-04-25T11:00:46;100180.78;;;14.59;44.09
26697;BME280;14312;52.614;13.496;2023-04-25T11:03:32;100176.97;;;14.65;44.29
26697;BME280;14312;52.614;13.496;2023-04-25T11:06:30;100177.97;;;14.79;42.43
26697;BME280;14312;52.614;13.496;2023-04-25T11:09:17;100190.75;;;14.92;44.12
26697;BME280;14312;52.614;13.496;2023-04-25T11:12:03;100205.44;;;15.00;43.16
26697;BME280;14312;52.614;13.496;2023-04-25T11:14:50;100204.69;;;14.94;42.48
26697;BME280;14312;52.614;13.496;2023-04-25T11:17:38;100228.38;;;14.82;42.33
26697;BME280;14312;52.614;13.496;2023-04-25T11:20:26;100242.97;;;14.66;42.83
26697;BME280;14312;52.614;13.496;2023-04-25T11:23:15;100224.81;;;14.47;42.54
26697;BME280;14312;52.614;13.496;2023-04-25T11:26:01;100231.28;;;14.31;42.81
26697;BME280;14312;52.614;13.496;2023-04-25T11:28:49;100244.22;;;14.19;43.05
26697;BME280;14312;52.614;13.496;2023-04-25T11:31:35;100243.16;;;14.10;42.89
26697;BME280;14312;52.614;13.496;2023-04-25T11:34:21;100246.13;;;14.03;42.79
26697;BME280;14312;52.614;13.496;2023-04-25T11:37:07;100241.06;;;13.97;42.51
26697;BME280;14312;52.614;13.496;2023-04-25T11:39:53;100238.63;;;13.95;42.99
26697;BME280;14312;52.614;13.496;2023-04-25T11:42:43;100239.97;;;13.98;42.97
26697;BME280;14312;52.614;13.496;2023-04-25T11:45:30;100245.84;;;14.00;42.85
26697;BME280;14312;52.614;13.496;2023-04-25T11:48:17;100239.97;;;14.03;42.65
26697;BME280;14312;52.614;13.496;2023-04-25T11:51:04;100236.44;;;14.07;42.42
26697;BME280;14312;52.614;13.496;2023-04-25T11:53:50;100242.34;;;14.09;42.54
26697;BME280;14312;52.614;13.496;2023-04-25T11:56:36;100250.66;;;14.13;42.64
26697;BME280;14312;52.614;13.496;2023-04-25T11:59:25;100241.78;;;14.18;42.45
26697;BME280;14312;52.614;13.496;2023-04-25T12:02:24;100243.63;;;14.22;41.77
26697;BME280;14312;52.614;13.496;2023-04-25T12:05:13;100255.94;;;14.28;42.84
26697;BME280;14312;52.614;13.496;2023-04-25T12:08:15;100246.28;;;14.37;42.54
26697;BME280;14312;52.614;13.496;2023-04-25T12:11:02;100245.19;;;14.43;43.00
26697;BME280;14312;52.614;13.496;2023-04-25T12:13:51;100259.66;;;14.53;42.66
26697;BME280;14312;52.614;13.496;2023-04-25T12:16:46;100257.19;;;14.61;42.54
26697;BME280;14312;52.614;13.496;2023-04-25T12:19:34;100275.63;;;14.73;42.56
26697;BME280;14312;52.614;13.496;2023-04-25T12:22:22;100267.00;;;14.81;41.75
26697;BME280;14312;52.614;13.496;2023-04-25T12:25:09;100275.59;;;14.83;40.95
26697;BME280;14312;52.614;13.496;2023-04-25T12:27:55;100257.63;;;14.78;41.08
26697;BME280;14312;52.614;13.496;2023-04-25T12:30:57;100261.69;;;14.76;40.18
26697;BME280;14312;52.614;13.496;2023-04-25T12:33:43;100261.41;;;14.77;41.83
26697;BME280;14312;52.614;13.496;2023-04-25T12:36:33;100262.94;;;14.88;42.09
26697;BME280;14312;52.614;13.496;2023-04-25T12:39:24;100269.03;;;15.04;40.93
26697;BME280;14312;52.614;13.496;2023-04-25T12:42:11;100271.63;;;15.14;41.35
26697;BME280;14312;52.614;13.496;2023-04-25T12:44:57;100260.34;;;15.17;40.88
26697;BME280;14312;52.614;13.496;2023-04-25T12:47:43;100273.25;;;15.15;40.82
26697;BME280;14312;52.614;13.496;2023-04-25T12:50:29;100263.63;;;15.09;40.40
26697;BME280;14312;52.614;13.496;2023-04-25T12:53:24;100272.78;;;15.03;40.12
26697;BME280;14312;52.614;13.496;2023-04-25T12:56:10;100262.91;;;14.99;41.17
26697;BME280;14312;52.614;13.496;2023-04-25T12:58:57;100259.91;;;15.00;41.30
26697;BME280;14312;52.614;13.496;2023-04-25T13:01:43;100262.03;;;15.08;41.49
26697;BME280;14312;52.614;13.496;2023-04-25T13:04:31;100258.75;;;15.16;41.25
26697;BME280;14312;52.614;13.496;2023-04-25T13:07:17;100264.06;;;15.21;40.96
26697;BME280;14312;52.614;13.496;2023-04-25T13:10:03;100260.84;;;15.24;40.64
26697;BME280;14312;52.614;13.496;2023-04-25T13:12:49;100274.53;;;15.23;40.76
26697;BME280;14312;52.614;13.496;2023-04-25T13:15:35;100260.88;;;15.19;40.41
26697;BME280;14312;52.614;13.496;2023-04-25T13:18:22;100265.47;;;15.14;40.58
26697;BME280;14312;52.614;13.496;2023-04-25T13:21:12;100271.94;;;15.08;40.87
26697;BME280;14312;52.614;13.496;2023-04-25T13:23:58;100268.28;;;14.99;40.87
26697;BME280;14312;52.614;13.496;2023-04-25T13:26:44;100272.88;;;14.88;40.76
26697;BME280;14312;52.614;13.496;2023-04-25T13:29:29;100282.88;;;14.77;40.35
26697;BME280;14312;52.614;13.496;2023-04-25T13:32:16;100275.16;;;14.61;40.66
26697;BME280;14312;52.614;13.496;2023-04-25T13:35:07;100276.84;;;14.46;40.05
26697;BME280;14312;52.614;13.496;2023-04-25T13:37:53;100288.13;;;14.33;40.83
26697;BME280;14312;52.614;13.496;2023-04-25T13:40:39;100287.59;;;14.21;41.12
26697;BME280;14312;52.614;13.496;2023-04-25T13:43:25;100290.84;;;14.08;41.08
26697;BME280;14312;52.614;13.496;2023-04-25T13:46:11;100297.03;;;13.98;41.43
26697;BME280;14312;52.614;13.496;2023-04-25T13:48:58;100303.22;;;13.89;41.50
26697;BME280;14312;52.614;13.496;2023-04-25T13:51:44;100308.56;;;13.79;41.63
26697;BME280;14312;52.614;13.496;2023-04-25T13:54:31;100312.31;;;13.72;41.81
26697;BME280;14312;52.614;13.496;2023-04-25T13:57:17;100306.97;;;13.67;41.98
26697;BME280;14312;52.614;13.496;2023-04-25T14:00:04;100301.06;;;13.65;42.29
26697;BME280;14312;52.614;13.496;2023-04-25T14:02:54;100309.66;;;13.62;42.19
26697;BME280;14312;52.614;13.496;2023-04-25T14:05:40;100304.56;;;13.66;42.33
26697;BME280;14312;52.614;13.496;2023-04-25T14:08:26;100315.00;;;13.72;42.59
26697;BME280;14312;52.614;13.496;2023-04-25T14:11:12;100314.19;;;13.82;42.73
26697;BME280;14312;52.614;13.496;2023-04-25T14:13:58;100319.81;;;13.96;42.98
26697;BME280;14312;52.614;13.496;2023-04-25T14:16:45;100305.84;;;14.14;43.12
26697;BME280;14312;52.614;13.496;2023-04-25T14:19:31;100307.16;;;14.32;42.77
26697;BME280;14312;52.614;13.496;2023-04-25T14:22:17;100313.56;;;14.46;42.34
26697;BME280;14312;52.614;13.496;2023-04-25T14:25:03;100313.28;;;14.53;42.17
26697;BME280;14312;52.614;13.496;2023-04-25T14:27:49;100313.81;;;14.55;42.12